sensor_id;sensor_type;location;lat;lon;timestamp;P1;durP1;ratioP1;P2;durP2;ratioP2
25419;SDS011;13354;48.174;11.566;2023-07-24T00:01:47;9.52;;;7.53;;
25419;SDS011;13354;48.174;11.566;2023-07-24T00:04:12;9.38;;;7.22;;
25419;SDS011;13354;48.174;11.566;2023-07-24T00:06:38;10.43;;;7.40;;
25419;SDS011;13354;48.174;11.566;2023-07-24T00:09:03;9.57;;;7.43;;
25419;SDS011;13354;48.174;11.566;2023-07-24T00:11:28;11.50;;;7.93;;
25419;SDS011;13354;48.174;11.566;2023-07-24T00:13:54;10.13;;;7.10;;
25419;SDS011;13354;48.174;11.566;2023-07-24T00:16:19;10.63;;;7.20;;
25419;SDS011;13354;48.174;11.566;2023-07-24T00:18:44;9.93;;;7.37;;
25419;SDS011;13354;48.174;11.566;2023-07-24T00:21:09;8.97;;;7.03;;
25419;SDS011;13354;48.174;11.566;2023-07-24T00:23:35;10.57;;;7.18;;
25419;SDS011;13354;48.174;11.566;2023-07-24T00:26:01;10.13;;;6.95;;
25419;SDS011;13354;48.174;11.566;2023-07-24T00:28:26;9.93;;;7.57;;
25419;SDS011;13354;48.174;11.566;2023-07-24T00:30:52;10.13;;;7.82;;
25419;SDS011;13354;48.174;11.566;2023-07-24T00:33:17;10.82;;;7.05;;
25419;SDS011;13354;48.174;11.566;2023-07-24T00:35:42;11.88;;;7.80;;
25419;SDS011;13354;48.174;11.566;2023-07-24T00:38:08;11.60;;;7.25;;
25419;SDS011;13354;48.174;11.566;2023-07-24T00:40:33;9.32;;;6.68;;
25419;SDS011;13354;48.174;11.566;2023-07-24T00:42:58;10.13;;;7.13;;
25419;SDS011;13354;48.174;11.566;2023-07-24T00:45:24;7.40;;;6.55;;
25419;SDS011;13354;48.174;11.566;2023-07-24T00:47:50;9.27;;;7.20;;
25419;SDS011;13354;48.174;11.566;2023-07-24T00:50:16;10.05;;;7.07;;
25419;SDS011;13354;48.174;11.566;2023-07-24T00:52:42;10.43;;;6.80;;
25419;SDS011;13354;48.174;11.566;2023-07-24T00:55:07;9.45;;;6.60;;
25419;SDS011;13354;48.174;11.566;2023-07-24T00:57:34;9.75;;;7.00;;
25419;SDS011;13354;48.174;11.566;2023-07-24T00:59:59;9.48;;;7.03;;
25419;SDS011;13354;48.174;11.566;2023-07-24T01:02:25;10.48;;;6.63;;
25419;SDS011;13354;48.174;11.566;2023-07-24T01:04:50;10.75;;;7.15;;
25419;SDS011;13354;48.174;11.566;2023-07-24T01:07:16;8.93;;;6.78;;
25419;SDS011;13354;48.174;11.566;2023-07-24T01:09:42;9.75;;;7.05;;
25419;SDS011;13354;48.174;11.566;2023-07-24T01:12:13;8.50;;;7.00;;
25419;SDS011;13354;48.174;11.566;2023-07-24T01:15:08;9.73;;;7.00;;
25419;SDS011;13354;48.174;11.566;2023-07-24T01:17:41;13.02;;;7.70;;
25419;SDS011;13354;48.174;11.566;2023-07-24T01:20:11;9.70;;;6.70;;
25419;SDS011;13354;48.174;11.566;2023-07-24T01:22:50;8.95;;;7.10;;
25419;SDS011;13354;48.174;11.566;2023-07-24T01:28:06;9.13;;;7.05;;
25419;SDS011;13354;48.174;11.566;2023-07-24T01:30:32;11.52;;;7.68;;
25419;SDS011;13354;48.174;11.566;2023-07-24T01:32:57;10.80;;;7.50;;
25419;SDS011;13354;48.174;11.566;2023-07-24T01:35:22;9.40;;;7.20;;
25419;SDS011;13354;48.174;11.566;2023-07-24T01:37:48;11.80;;;7.93;;
25419;SDS011;13354;48.174;11.566;2023-07-24T01:40:14;9.38;;;6.72;;
25419;SDS011;13354;48.174;11.566;2023-07-24T01:42:40;12.32;;;7.28;;
25419;SDS011;13354;48.174;11.566;2023-07-24T01:45:06;10.23;;;7.22;;
25419;SDS011;13354;48.174;11.566;2023-07-24T01:47:32;9.80;;;7.10;;
25419;SDS011;13354;48.174;11.566;2023-07-24T01:49:57;10.52;;;7.55;;
25419;SDS011;13354;48.174;11.566;2023-07-24T01:52:22;11.73;;;6.95;;
25419;SDS011;13354;48.174;11.566;2023-07-24T01:54:48;12.07;;;7.40;;
25419;SDS011;13354;48.174;11.566;2023-07-24T01:57:13;8.90;;;6.70;;
25419;SDS011;13354;48.174;11.566;2023-07-24T01:59:38;9.18;;;6.97;;
25419;SDS011;13354;48.174;11.566;2023-07-24T02:02:04;11.38;;;7.00;;
25419;SDS011;13354;48.174;11.566;2023-07-24T02:04:29;10.40;;;7.70;;
25419;SDS011;13354;48.174;11.566;2023-07-24T02:06:55;11.40;;;7.20;;
25419;SDS011;13354;48.174;11.566;2023-07-24T02:09:20;9.75;;;6.75;;
25419;SDS011;13354;48.174;11.566;2023-07-24T02:11:45;11.00;;;7.57;;
25419;SDS011;13354;48.174;11.566;2023-07-24T02:14:11;9.68;;;7.13;;
25419;SDS011;13354;48.174;11.566;2023-07-24T02:16:37;9.52;;;7.85;;
25419;SDS011;13354;48.174;11.566;2023-07-24T02:19:03;10.23;;;7.88;;
25419;SDS011;13354;48.174;11.566;2023-07-24T02:21:28;10.45;;;7.72;;
25419;SDS011;13354;48.174;11.566;2023-07-24T02:23:53;10.50;;;7.70;;
25419;SDS011;13354;48.174;11.566;2023-07-24T02:26:19;9.35;;;7.40;;
25419;SDS011;13354;48.174;11.566;2023-07-24T02:28:44;12.20;;;7.80;;
25419;SDS011;13354;48.174;11.566;2023-07-24T02:31:09;10.32;;;7.68;;
25419;SDS011;13354;48.174;11.566;2023-07-24T02:33:35;13.35;;;9.10;;
25419;SDS011;13354;48.174;11.566;2023-07-24T02:36:00;14.20;;;9.20;;
25419;SDS011;13354;48.174;11.566;2023-07-24T02:38:26;13.27;;;9.00;;
25419;SDS011;13354;48.174;11.566;2023-07-24T02:40:51;12.88;;;9.07;;
25419;SDS011;13354;48.174;11.566;2023-07-24T02:43:17;12.40;;;8.80;;
25419;SDS011;13354;48.174;11.566;2023-07-24T02:45:42;14.27;;;9.48;;
25419;SDS011;13354;48.174;11.566;2023-07-24T02:48:07;15.93;;;8.83;;
25419;SDS011;13354;48.174;11.566;2023-07-24T02:50:33;14.02;;;10.05;;
25419;SDS011;13354;48.174;11.566;2023-07-24T02:52:59;13.98;;;9.35;;
25419;SDS011;13354;48.174;11.566;2023-07-24T02:55:24;12.50;;;9.32;;
25419;SDS011;13354;48.174;11.566;2023-07-24T02:57:50;13.50;;;9.68;;
25419;SDS011;13354;48.174;11.566;2023-07-24T03:00:16;13.27;;;8.75;;
25419;SDS011;13354;48.174;11.566;2023-07-24T03:02:41;15.25;;;9.63;;
25419;SDS011;13354;48.174;11.566;2023-07-24T03:05:07;13.15;;;8.48;;
25419;SDS011;13354;48.174;11.566;2023-07-24T03:07:32;14.48;;;9.30;;
25419;SDS011;13354;48.174;11.566;2023-07-24T03:09:58;11.88;;;8.63;;
25419;SDS011;13354;48.174;11.566;2023-07-24T03:12:23;11.52;;;9.13;;
25419;SDS011;13354;48.174;11.566;2023-07-24T03:14:48;14.35;;;8.98;;
25419;SDS011;13354;48.174;11.566;2023-07-24T03:17:14;12.27;;;9.32;;
25419;SDS011;13354;48.174;11.566;2023-07-24T03:19:40;11.90;;;9.18;;
25419;SDS011;13354;48.174;11.566;2023-07-24T03:22:06;13.75;;;9.48;;
25419;SDS011;13354;48.174;11.566;2023-07-24T03:24:31;12.68;;;9.38;;
25419;SDS011;13354;48.174;11.566;2023-07-24T03:26:57;12.93;;;9.00;;
25419;SDS011;13354;48.174;11.566;2023-07-24T03:29:22;14.03;;;9.63;;
25419;SDS011;13354;48.174;11.566;2023-07-24T03:31:47;15.00;;;9.30;;
25419;SDS011;13354;48.174;11.566;2023-07-24T03:34:12;13.18;;;9.98;;
25419;SDS011;13354;48.174;11.566;2023-07-24T03:36:38;14.02;;;9.63;;
25419;SDS011;13354;48.174;11.566;2023-07-24T03:39:06;15.57;;;9.80;;
25419;SDS011;13354;48.174;11.566;2023-07-24T03:41:32;16.02;;;10.70;;
25419;SDS011;13354;48.174;11.566;2023-07-24T03:43:57;13.10;;;10.20;;
25419;SDS011;13354;48.174;11.566;2023-07-24T03:46:22;13.83;;;10.33;;
25419;SDS011;13354;48.174;11.566;2023-07-24T03:48:48;14.02;;;9.88;;
25419;SDS011;13354;48.174;11.566;2023-07-24T03:51:14;16.95;;;9.82;;
25419;SDS011;13354;48.174;11.566;2023-07-24T03:53:40;13.80;;;9.93;;
25419;SDS011;13354;48.174;11.566;2023-07-24T03:56:05;15.02;;;10.02;;
25419;SDS011;13354;48.174;11.566;2023-07-24T03:58:30;16.50;;;10.23;;
25419;SDS011;13354;48.174;11.566;2023-07-24T04:00:56;16.08;;;10.32;;
25419;SDS011;13354;48.174;11.566;2023-07-24T04:03:21;15.57;;;10.00;;
25419;SDS011;13354;48.174;11.566;2023-07-24T04:05:46;15.80;;;10.82;;
25419;SDS011;13354;48.174;11.566;2023-07-24T04:08:11;16.92;;;10.88;;
25419;SDS011;13354;48.174;11.566;2023-07-24T04:10:37;16.10;;;10.75;;
25419;SDS011;13354;48.174;11.566;2023-07-24T04:13:02;16.40;;;10.93;;
25419;SDS011;13354;48.174;11.566;2023-07-24T04:15:27;13.27;;;10.25;;
25419;SDS011;13354;48.174;11.566;2023-07-24T04:17:53;15.30;;;10.73;;
25419;SDS011;13354;48.174;11.566;2023-07-24T04:20:18;15.23;;;10.17;;
25419;SDS011;13354;48.174;11.566;2023-07-24T04:22:43;15.80;;;10.93;;
25419;SDS011;13354;48.174;11.566;2023-07-24T04:25:08;18.10;;;10.83;;
25419;SDS011;13354;48.174;11.566;2023-07-24T04:27:34;17.13;;;10.43;;
25419;SDS011;13354;48.174;11.566;2023-07-24T04:29:59;15.60;;;11.15;;
25419;SDS011;13354;48.174;11.566;2023-07-24T04:32:26;18.10;;;11.05;;
25419;SDS011;13354;48.174;11.566;2023-07-24T04:34:52;16.08;;;11.20;;
25419;SDS011;13354;48.174;11.566;2023-07-24T04:37:18;16.20;;;10.52;;
25419;SDS011;13354;48.174;11.566;2023-07-24T04:39:43;15.90;;;11.00;;
25419;SDS011;13354;48.174;11.566;2023-07-24T04:42:08;17.88;;;11.13;;
25419;SDS011;13354;48.174;11.566;2023-07-24T04:44:34;16.52;;;11.15;;
25419;SDS011;13354;48.174;11.566;2023-07-24T04:46:59;15.98;;;10.88;;
25419;SDS011;13354;48.174;11.566;2023-07-24T04:49:24;18.25;;;11.25;;
25419;SDS011;13354;48.174;11.566;2023-07-24T04:51:50;16.35;;;10.30;;
25419;SDS011;13354;48.174;11.566;2023-07-24T04:54:16;16.98;;;10.63;;
25419;SDS011;13354;48.174;11.566;2023-07-24T04:56:42;15.82;;;10.90;;
25419;SDS011;13354;48.174;11.566;2023-07-24T04:59:07;15.77;;;10.63;;
25419;SDS011;13354;48.174;11.566;2023-07-24T05:01:33;16.67;;;11.75;;
25419;SDS011;13354;48.174;11.566;2023-07-24T05:03:58;15.35;;;10.98;;
25419;SDS011;13354;48.174;11.566;2023-07-24T05:06:24;15.75;;;10.55;;
25419;SDS011;13354;48.174;11.566;2023-07-24T05:08:49;17.55;;;11.68;;
25419;SDS011;13354;48.174;11.566;2023-07-24T05:11:14;18.77;;;11.35;;
25419;SDS011;13354;48.174;11.566;2023-07-24T05:13:40;15.55;;;11.48;;
25419;SDS011;13354;48.174;11.566;2023-07-24T05:16:05;14.15;;;10.75;;
25419;SDS011;13354;48.174;11.566;2023-07-24T05:18:30;16.55;;;10.75;;
25419;SDS011;13354;48.174;11.566;2023-07-24T05:20:55;16.95;;;10.70;;
25419;SDS011;13354;48.174;11.566;2023-07-24T05:23:21;15.30;;;10.10;;
25419;SDS011;13354;48.174;11.566;2023-07-24T05:25:46;15.30;;;10.63;;
25419;SDS011;13354;48.174;11.566;2023-07-24T05:28:12;14.57;;;10.75;;
25419;SDS011;13354;48.174;11.566;2023-07-24T05:30:37;15.13;;;10.55;;
25419;SDS011;13354;48.174;11.566;2023-07-24T05:33:02;16.10;;;10.40;;
25419;SDS011;13354;48.174;11.566;2023-07-24T05:35:27;12.75;;;9.60;;
25419;SDS011;13354;48.174;11.566;2023-07-24T05:37:53;15.05;;;10.55;;
25419;SDS011;13354;48.174;11.566;2023-07-24T05:40:18;18.02;;;11.05;;
25419;SDS011;13354;48.174;11.566;2023-07-24T05:42:43;14.10;;;9.63;;
25419;SDS011;13354;48.174;11.566;2023-07-24T05:45:09;12.15;;;9.27;;
25419;SDS011;13354;48.174;11.566;2023-07-24T05:47:36;15.18;;;9.90;;
25419;SDS011;13354;48.174;11.566;2023-07-24T05:50:01;12.57;;;9.50;;
25419;SDS011;13354;48.174;11.566;2023-07-24T05:52:27;11.10;;;8.98;;
25419;SDS011;13354;48.174;11.566;2023-07-24T05:54:52;16.60;;;9.83;;
25419;SDS011;13354;48.174;11.566;2023-07-24T05:57:17;13.27;;;9.35;;
25419;SDS011;13354;48.174;11.566;2023-07-24T05:59:42;16.67;;;9.23;;
25419;SDS011;13354;48.174;11.566;2023-07-24T06:02:08;14.40;;;9.70;;
25419;SDS011;13354;48.174;11.566;2023-07-24T06:04:34;15.27;;;9.15;;
25419;SDS011;13354;48.174;11.566;2023-07-24T06:06:59;14.27;;;10.00;;
25419;SDS011;13354;48.174;11.566;2023-07-24T06:09:24;13.13;;;9.47;;
25419;SDS011;13354;48.174;11.566;2023-07-24T06:11:50;18.05;;;9.70;;
25419;SDS011;13354;48.174;11.566;2023-07-24T06:14:15;13.07;;;10.07;;
25419;SDS011;13354;48.174;11.566;2023-07-24T06:16:40;11.73;;;8.87;;
25419;SDS011;13354;48.174;11.566;2023-07-24T06:19:06;15.68;;;9.70;;
25419;SDS011;13354;48.174;11.566;2023-07-24T06:21:31;14.07;;;9.43;;
25419;SDS011;13354;48.174;11.566;2023-07-24T06:23:56;12.70;;;9.13;;
25419;SDS011;13354;48.174;11.566;2023-07-24T06:26:22;14.07;;;9.57;;
25419;SDS011;13354;48.174;11.566;2023-07-24T06:28:47;13.50;;;9.27;;
25419;SDS011;13354;48.174;11.566;2023-07-24T06:31:12;13.63;;;9.50;;
25419;SDS011;13354;48.174;11.566;2023-07-24T06:33:38;14.55;;;9.48;;
25419;SDS011;13354;48.174;11.566;2023-07-24T06:36:03;10.93;;;8.77;;
25419;SDS011;13354;48.174;11.566;2023-07-24T06:38:29;13.00;;;8.95;;
25419;SDS011;13354;48.174;11.566;2023-07-24T06:40:54;17.48;;;10.45;;
25419;SDS011;13354;48.174;11.566;2023-07-24T06:43:19;21.52;;;16.58;;
25419;SDS011;13354;48.174;11.566;2023-07-24T06:45:45;13.97;;;9.50;;
25419;SDS011;13354;48.174;11.566;2023-07-24T06:48:10;14.68;;;9.55;;
25419;SDS011;13354;48.174;11.566;2023-07-24T06:50:35;14.67;;;9.67;;
25419;SDS011;13354;48.174;11.566;2023-07-24T06:53:01;13.25;;;9.63;;
25419;SDS011;13354;48.174;11.566;2023-07-24T06:55:26;12.02;;;8.70;;
25419;SDS011;13354;48.174;11.566;2023-07-24T06:57:51;13.33;;;9.50;;
25419;SDS011;13354;48.174;11.566;2023-07-24T07:00:16;12.13;;;8.25;;
25419;SDS011;13354;48.174;11.566;2023-07-24T07:02:42;13.32;;;9.85;;
25419;SDS011;13354;48.174;11.566;2023-07-24T07:05:07;13.18;;;8.85;;
25419;SDS011;13354;48.174;11.566;2023-07-24T07:07:33;13.98;;;9.32;;
25419;SDS011;13354;48.174;11.566;2023-07-24T07:09:58;14.52;;;8.93;;
25419;SDS011;13354;48.174;11.566;2023-07-24T07:12:23;16.20;;;9.45;;
25419;SDS011;13354;48.174;11.566;2023-07-24T07:14:49;12.37;;;9.23;;
25419;SDS011;13354;48.174;11.566;2023-07-24T07:17:14;13.00;;;9.10;;
25419;SDS011;13354;48.174;11.566;2023-07-24T07:19:39;13.57;;;9.53;;
25419;SDS011;13354;48.174;11.566;2023-07-24T07:22:05;14.55;;;9.18;;
25419;SDS011;13354;48.174;11.566;2023-07-24T07:24:30;14.38;;;8.95;;
25419;SDS011;13354;48.174;11.566;2023-07-24T07:26:56;13.88;;;10.00;;
25419;SDS011;13354;48.174;11.566;2023-07-24T07:29:21;14.48;;;9.18;;
25419;SDS011;13354;48.174;11.566;2023-07-24T07:31:46;15.80;;;11.82;;
25419;SDS011;13354;48.174;11.566;2023-07-24T07:34:12;13.93;;;9.60;;
25419;SDS011;13354;48.174;11.566;2023-07-24T07:36:37;11.88;;;8.32;;
25419;SDS011;13354;48.174;11.566;2023-07-24T07:39:02;15.82;;;9.25;;
25419;SDS011;13354;48.174;11.566;2023-07-24T07:41:28;15.50;;;9.02;;
25419;SDS011;13354;48.174;11.566;2023-07-24T07:43:53;13.93;;;8.95;;
25419;SDS011;13354;48.174;11.566;2023-07-24T07:46:19;14.68;;;9.57;;
25419;SDS011;13354;48.174;11.566;2023-07-24T07:48:44;14.00;;;9.80;;
25419;SDS011;13354;48.174;11.566;2023-07-24T07:51:11;12.70;;;9.85;;
25419;SDS011;13354;48.174;11.566;2023-07-24T07:53:36;19.15;;;13.23;;
25419;SDS011;13354;48.174;11.566;2023-07-24T07:56:03;15.55;;;10.40;;
25419;SDS011;13354;48.174;11.566;2023-07-24T07:58:29;15.75;;;10.43;;
25419;SDS011;13354;48.174;11.566;2023-07-24T08:00:55;14.30;;;10.35;;
25419;SDS011;13354;48.174;11.566;2023-07-24T08:03:20;16.63;;;10.65;;
25419;SDS011;13354;48.174;11.566;2023-07-24T08:05:46;12.32;;;9.68;;
25419;SDS011;13354;48.174;11.566;2023-07-24T08:08:11;13.50;;;9.85;;
25419;SDS011;13354;48.174;11.566;2023-07-24T08:10:37;15.50;;;9.68;;
25419;SDS011;13354;48.174;11.566;2023-07-24T08:13:03;13.20;;;9.93;;
25419;SDS011;13354;48.174;11.566;2023-07-24T08:15:28;18.67;;;14.10;;
25419;SDS011;13354;48.174;11.566;2023-07-24T08:17:54;17.27;;;13.50;;
25419;SDS011;13354;48.174;11.566;2023-07-24T08:20:19;17.83;;;10.53;;
25419;SDS011;13354;48.174;11.566;2023-07-24T08:22:44;13.67;;;9.30;;
25419;SDS011;13354;48.174;11.566;2023-07-24T08:25:09;13.57;;;9.13;;
25419;SDS011;13354;48.174;11.566;2023-07-24T08:27:35;13.40;;;9.25;;
25419;SDS011;13354;48.174;11.566;2023-07-24T08:30:00;13.40;;;9.18;;
25419;SDS011;13354;48.174;11.566;2023-07-24T08:32:25;12.93;;;8.20;;
25419;SDS011;13354;48.174;11.566;2023-07-24T08:34:51;10.93;;;7.65;;
25419;SDS011;13354;48.174;11.566;2023-07-24T08:37:16;11.30;;;8.02;;
25419;SDS011;13354;48.174;11.566;2023-07-24T08:39:43;11.60;;;7.93;;
25419;SDS011;13354;48.174;11.566;2023-07-24T08:42:09;10.23;;;8.07;;
25419;SDS011;13354;48.174;11.566;2023-07-24T08:44:35;9.55;;;7.68;;
25419;SDS011;13354;48.174;11.566;2023-07-24T08:47:01;14.32;;;10.57;;
25419;SDS011;13354;48.174;11.566;2023-07-24T08:49:29;20.50;;;16.23;;
25419;SDS011;13354;48.174;11.566;2023-07-24T08:51:55;13.27;;;10.73;;
25419;SDS011;13354;48.174;11.566;2023-07-24T08:54:21;11.77;;;9.18;;
25419;SDS011;13354;48.174;11.566;2023-07-24T08:56:49;14.23;;;8.80;;
25419;SDS011;13354;48.174;11.566;2023-07-24T08:59:16;17.05;;;8.57;;
25419;SDS011;13354;48.174;11.566;2023-07-24T09:01:42;12.48;;;8.88;;
25419;SDS011;13354;48.174;11.566;2023-07-24T09:04:07;13.05;;;8.45;;
25419;SDS011;13354;48.174;11.566;2023-07-24T09:06:33;13.25;;;9.23;;
25419;SDS011;13354;48.174;11.566;2023-07-24T09:08:58;11.95;;;8.45;;
25419;SDS011;13354;48.174;11.566;2023-07-24T09:11:23;12.27;;;7.95;;
25419;SDS011;13354;48.174;11.566;2023-07-24T09:13:49;11.38;;;8.55;;
25419;SDS011;13354;48.174;11.566;2023-07-24T09:16:22;12.82;;;8.70;;
25419;SDS011;13354;48.174;11.566;2023-07-24T09:18:51;12.00;;;8.65;;
25419;SDS011;13354;48.174;11.566;2023-07-24T09:21:26;13.48;;;8.75;;
25419;SDS011;13354;48.174;11.566;2023-07-24T09:23:55;12.43;;;8.70;;
25419;SDS011;13354;48.174;11.566;2023-07-24T09:26:21;13.60;;;8.40;;
25419;SDS011;13354;48.174;11.566;2023-07-24T09:28:53;14.65;;;8.73;;
25419;SDS011;13354;48.174;11.566;2023-07-24T09:31:19;12.93;;;8.60;;
25419;SDS011;13354;48.174;11.566;2023-07-24T09:33:44;14.02;;;8.48;;
25419;SDS011;13354;48.174;11.566;2023-07-24T09:36:10;14.10;;;9.43;;
25419;SDS011;13354;48.174;11.566;2023-07-24T09:38:36;14.10;;;9.02;;
25419;SDS011;13354;48.174;11.566;2023-07-24T09:41:02;12.88;;;8.55;;
25419;SDS011;13354;48.174;11.566;2023-07-24T09:43:29;16.60;;;9.60;;
25419;SDS011;13354;48.174;11.566;2023-07-24T09:45:55;13.75;;;9.00;;
25419;SDS011;13354;48.174;11.566;2023-07-24T09:48:23;13.10;;;8.88;;
25419;SDS011;13354;48.174;11.566;2023-07-24T09:50:53;12.00;;;7.70;;
25419;SDS011;13354;48.174;11.566;2023-07-24T09:53:33;11.45;;;7.57;;
25419;SDS011;13354;48.174;11.566;2023-07-24T09:56:04;8.88;;;6.82;;
25419;SDS011;13354;48.174;11.566;2023-07-24T09:58:38;9.35;;;7.07;;
25419;SDS011;13354;48.174;11.566;2023-07-24T10:01:05;9.65;;;6.35;;
25419;SDS011;13354;48.174;11.566;2023-07-24T10:03:39;8.68;;;6.32;;
25419;SDS011;13354;48.174;11.566;2023-07-24T10:06:06;9.80;;;6.37;;
25419;SDS011;13354;48.174;11.566;2023-07-24T10:08:36;7.47;;;6.18;;
25419;SDS011;13354;48.174;11.566;2023-07-24T10:11:04;7.93;;;5.60;;
25419;SDS011;13354;48.174;11.566;2023-07-24T10:13:29;8.05;;;5.97;;
25419;SDS011;13354;48.174;11.566;2023-07-24T10:15:56;7.32;;;5.70;;
25419;SDS011;13354;48.174;11.566;2023-07-24T10:18:28;7.13;;;5.25;;
25419;SDS011;13354;48.174;11.566;2023-07-24T10:21:01;12.00;;;5.80;;
25419;SDS011;13354;48.174;11.566;2023-07-24T10:23:28;6.30;;;4.82;;
25419;SDS011;13354;48.174;11.566;2023-07-24T10:25:53;7.28;;;5.78;;
25419;SDS011;13354;48.174;11.566;2023-07-24T10:28:19;6.68;;;4.90;;
25419;SDS011;13354;48.174;11.566;2023-07-24T10:30:55;6.88;;;5.50;;
25419;SDS011;13354;48.174;11.566;2023-07-24T10:33:21;9.30;;;5.45;;
25419;SDS011;13354;48.174;11.566;2023-07-24T10:35:47;9.63;;;7.28;;
25419;SDS011;13354;48.174;11.566;2023-07-24T10:38:16;11.57;;;7.57;;
25419;SDS011;13354;48.174;11.566;2023-07-24T10:40:44;6.50;;;5.50;;
25419;SDS011;13354;48.174;11.566;2023-07-24T10:43:11;8.45;;;5.68;;
25419;SDS011;13354;48.174;11.566;2023-07-24T10:48:14;5.68;;;4.75;;
25419;SDS011;13354;48.174;11.566;2023-07-24T10:50:45;7.13;;;5.10;;
25419;SDS011;13354;48.174;11.566;2023-07-24T10:53:13;7.32;;;5.03;;
25419;SDS011;13354;48.174;11.566;2023-07-24T10:55:40;6.05;;;4.43;;
25419;SDS011;13354;48.174;11.566;2023-07-24T10:58:07;6.60;;;4.78;;
25419;SDS011;13354;48.174;11.566;2023-07-24T11:00:33;7.93;;;5.13;;
25419;SDS011;13354;48.174;11.566;2023-07-24T11:02:59;8.07;;;4.53;;
25419;SDS011;13354;48.174;11.566;2023-07-24T11:05:24;7.57;;;5.22;;
25419;SDS011;13354;48.174;11.566;2023-07-24T11:07:49;6.50;;;4.85;;
25419;SDS011;13354;48.174;11.566;2023-07-24T11:10:19;5.90;;;4.90;;
25419;SDS011;13354;48.174;11.566;2023-07-24T11:12:45;8.15;;;4.90;;
25419;SDS011;13354;48.174;11.566;2023-07-24T11:15:11;15.13;;;12.35;;
25419;SDS011;13354;48.174;11.566;2023-07-24T11:17:39;9.23;;;6.60;;
25419;SDS011;13354;48.174;11.566;2023-07-24T11:20:09;4.70;;;4.18;;
25419;SDS011;13354;48.174;11.566;2023-07-24T11:22:41;7.38;;;5.03;;
25419;SDS011;13354;48.174;11.566;2023-07-24T11:25:09;5.93;;;4.43;;
25419;SDS011;13354;48.174;11.566;2023-07-24T11:27:40;7.18;;;4.55;;
25419;SDS011;13354;48.174;11.566;2023-07-24T11:30:07;5.50;;;4.18;;
25419;SDS011;13354;48.174;11.566;2023-07-24T11:32:32;8.60;;;4.88;;
25419;SDS011;13354;48.174;11.566;2023-07-24T11:34:58;5.00;;;4.22;;
25419;SDS011;13354;48.174;11.566;2023-07-24T11:37:24;6.90;;;4.82;;
25419;SDS011;13354;48.174;11.566;2023-07-24T11:39:57;5.63;;;4.75;;
25419;SDS011;13354;48.174;11.566;2023-07-24T11:42:26;5.30;;;4.53;;
25419;SDS011;13354;48.174;11.566;2023-07-24T11:44:52;5.72;;;4.68;;
25419;SDS011;13354;48.174;11.566;2023-07-24T11:47:18;6.13;;;5.45;;
25419;SDS011;13354;48.174;11.566;2023-07-24T11:49:43;6.00;;;5.10;;
25419;SDS011;13354;48.174;11.566;2023-07-24T11:52:13;4.90;;;4.35;;
25419;SDS011;13354;48.174;11.566;2023-07-24T11:54:39;5.90;;;4.75;;
25419;SDS011;13354;48.174;11.566;2023-07-24T11:57:14;7.18;;;4.10;;
25419;SDS011;13354;48.174;11.566;2023-07-24T11:59:42;7.10;;;6.38;;
25419;SDS011;13354;48.174;11.566;2023-07-24T12:02:11;8.63;;;5.53;;
25419;SDS011;13354;48.174;11.566;2023-07-24T12:04:36;6.38;;;4.22;;
25419;SDS011;13354;48.174;11.566;2023-07-24T12:07:07;7.28;;;4.50;;
25419;SDS011;13354;48.174;11.566;2023-07-24T12:09:32;9.88;;;4.55;;
25419;SDS011;13354;48.174;11.566;2023-07-24T12:11:58;6.93;;;4.85;;
25419;SDS011;13354;48.174;11.566;2023-07-24T12:14:24;6.30;;;4.68;;
25419;SDS011;13354;48.174;11.566;2023-07-24T12:16:53;7.20;;;4.80;;
25419;SDS011;13354;48.174;11.566;2023-07-24T12:19:25;8.50;;;5.47;;
25419;SDS011;13354;48.174;11.566;2023-07-24T12:21:51;8.02;;;5.30;;
25419;SDS011;13354;48.174;11.566;2023-07-24T12:24:16;6.63;;;4.95;;
25419;SDS011;13354;48.174;11.566;2023-07-24T12:26:41;7.07;;;5.50;;
25419;SDS011;13354;48.174;11.566;2023-07-24T12:29:07;5.53;;;4.70;;
25419;SDS011;13354;48.174;11.566;2023-07-24T12:31:32;8.90;;;6.43;;
25419;SDS011;13354;48.174;11.566;2023-07-24T12:33:57;6.60;;;4.82;;
25419;SDS011;13354;48.174;11.566;2023-07-24T12:36:22;7.05;;;4.95;;
25419;SDS011;13354;48.174;11.566;2023-07-24T12:38:48;6.53;;;5.10;;
25419;SDS011;13354;48.174;11.566;2023-07-24T12:41:14;8.00;;;5.28;;
25419;SDS011;13354;48.174;11.566;2023-07-24T12:43:39;7.35;;;5.20;;
25419;SDS011;13354;48.174;11.566;2023-07-24T12:46:04;9.20;;;6.00;;
25419;SDS011;13354;48.174;11.566;2023-07-24T12:48:30;8.23;;;5.60;;
25419;SDS011;13354;48.174;11.566;2023-07-24T12:50:56;6.88;;;5.60;;
25419;SDS011;13354;48.174;11.566;2023-07-24T12:53:22;7.22;;;6.22;;
25419;SDS011;13354;48.174;11.566;2023-07-24T12:55:48;11.05;;;8.13;;
25419;SDS011;13354;48.174;11.566;2023-07-24T12:58:13;10.57;;;8.55;;
25419;SDS011;13354;48.174;11.566;2023-07-24T13:00:38;6.88;;;5.20;;
25419;SDS011;13354;48.174;11.566;2023-07-24T13:03:04;7.87;;;5.77;;
25419;SDS011;13354;48.174;11.566;2023-07-24T13:05:29;7.93;;;5.53;;
25419;SDS011;13354;48.174;11.566;2023-07-24T13:07:55;7.18;;;4.97;;
25419;SDS011;13354;48.174;11.566;2023-07-24T13:10:21;7.28;;;5.22;;
25419;SDS011;13354;48.174;11.566;2023-07-24T13:12:46;7.88;;;5.40;;
25419;SDS011;13354;48.174;11.566;2023-07-24T13:15:11;10.70;;;5.60;;
25419;SDS011;13354;48.174;11.566;2023-07-24T13:17:37;8.68;;;5.18;;
25419;SDS011;13354;48.174;11.566;2023-07-24T13:20:02;7.80;;;4.93;;
25419;SDS011;13354;48.174;11.566;2023-07-24T13:22:28;11.60;;;10.20;;
25419;SDS011;13354;48.174;11.566;2023-07-24T13:24:53;9.27;;;5.67;;
25419;SDS011;13354;48.174;11.566;2023-07-24T13:27:18;7.18;;;5.28;;
25419;SDS011;13354;48.174;11.566;2023-07-24T13:29:44;6.43;;;5.10;;
25419;SDS011;13354;48.174;11.566;2023-07-24T13:32:09;6.95;;;5.13;;
25419;SDS011;13354;48.174;11.566;2023-07-24T13:34:34;7.40;;;4.73;;
25419;SDS011;13354;48.174;11.566;2023-07-24T13:37:00;9.03;;;4.80;;
25419;SDS011;13354;48.174;11.566;2023-07-24T13:39:26;8.38;;;5.25;;
25419;SDS011;13354;48.174;11.566;2023-07-24T13:41:53;6.75;;;5.28;;
25419;SDS011;13354;48.174;11.566;2023-07-24T13:44:18;8.57;;;5.00;;
25419;SDS011;13354;48.174;11.566;2023-07-24T13:46:43;9.82;;;7.30;;
25419;SDS011;13354;48.174;11.566;2023-07-24T13:49:09;9.47;;;7.03;;
25419;SDS011;13354;48.174;11.566;2023-07-24T13:51:34;7.57;;;5.50;;
25419;SDS011;13354;48.174;11.566;2023-07-24T13:53:59;6.53;;;4.97;;
25419;SDS011;13354;48.174;11.566;2023-07-24T13:56:25;6.57;;;4.78;;
25419;SDS011;13354;48.174;11.566;2023-07-24T13:58:51;5.43;;;4.72;;
25419;SDS011;13354;48.174;11.566;2023-07-24T14:01:17;6.18;;;4.82;;
25419;SDS011;13354;48.174;11.566;2023-07-24T14:03:42;7.93;;;5.32;;
25419;SDS011;13354;48.174;11.566;2023-07-24T14:06:07;8.23;;;5.03;;
25419;SDS011;13354;48.174;11.566;2023-07-24T14:08:33;7.70;;;5.20;;
25419;SDS011;13354;48.174;11.566;2023-07-24T14:10:58;6.85;;;4.85;;
25419;SDS011;13354;48.174;11.566;2023-07-24T14:13:23;8.15;;;4.85;;
25419;SDS011;13354;48.174;11.566;2023-07-24T14:15:49;7.57;;;5.03;;
25419;SDS011;13354;48.174;11.566;2023-07-24T14:18:14;6.85;;;5.10;;
25419;SDS011;13354;48.174;11.566;2023-07-24T14:20:39;6.47;;;4.28;;
25419;SDS011;13354;48.174;11.566;2023-07-24T14:23:05;8.70;;;5.10;;